Time;durP1;ratioP1;P1;durP2;ratioP2;P2;SDS_P1;SDS_P2;PMS_P1;PMS_P2;Temp;Humidity;BMP_temperature;BMP_pressure;BME280_temperature;BME280_humidity;BME280_pressure;Samples;Min_cycle;Max_cycle;Signal;HPM_P1;HPM_P2
2022/08/04 00:01:38;;;;;;;;;;;14.00;99.90;;;;;;5157668;27;20263;-75
2022/08/04 00:04:16;;;;;;;;;;;14.00;99.90;;;;;;5157578;27;19933;-75
2022/08/04 00:06:48;;;;;;;;;;;13.90;99.90;;;;;;5139458;27;19914;-75
2022/08/04 00:09:33;;;;;;;;;;;13.90;99.90;;;;;;5156809;27;20321;-75
2022/08/04 00:12:00;;;;;;;;;;;13.90;99.90;;;;;;5157687;27;19903;-75
2022/08/04 00:14:29;;;;;;;;;;;13.90;99.90;;;;;;5156804;27;19908;-75
2022/08/04 00:16:55;;;;;;;;;;;13.80;99.90;;;;;;5157536;27;20233;-75
2022/08/04 00:19:25;;;;;;;;;;;13.80;99.90;;;;;;5156841;27;19928;-75
2022/08/04 00:21:54;;;;;;;;;;;13.80;99.90;;;;;;5157769;27;19956;-76
2022/08/04 00:24:21;;;;;;;;;;;13.80;99.90;;;;;;5156618;27;20283;-75
2022/08/04 00:26:46;;;;;;;;;;;13.80;99.90;;;;;;5157392;27;19907;-75
2022/08/04 00:29:12;;;;;;;;;;;13.70;99.90;;;;;;5156388;27;19907;-75
2022/08/04 00:31:40;;;;;;;;;;;13.70;99.90;;;;;;5157214;27;19990;-75
2022/08/04 00:34:06;;;;;;;;;;;13.60;99.90;;;;;;5157589;27;19903;-75
2022/08/04 00:36:32;;;;;;;;;;;13.70;99.90;;;;;;5156496;27;20499;-75
2022/08/04 00:38:59;;;;;;;;;;;13.60;99.90;;;;;;5156740;27;19903;-74
2022/08/04 00:41:25;;;;;;;;;;;13.60;99.90;;;;;;5156098;27;20282;-75
2022/08/04 00:43:50;;;;;;;;;;;13.60;99.90;;;;;;5156229;27;19903;-75
2022/08/04 00:46:44;;;;;;;;;;;13.60;99.90;;;;;;5156405;27;20376;-74
2022/08/04 00:49:29;;;;;;;;;;;13.50;99.90;;;;;;5138104;27;19915;-75
2022/08/04 00:51:54;;;;;;;;;;;13.50;99.90;;;;;;5156849;27;19903;-75
2022/08/04 00:54:46;;;;;;;;;;;13.40;99.90;;;;;;5156297;27;19928;-75
2022/08/04 00:57:20;;;;;;;;;;;13.40;99.90;;;;;;5116431;27;19953;-75
2022/08/04 01:00:01;;;;;;;;;;;13.40;99.90;;;;;;5156776;27;19910;-74
2022/08/04 01:02:38;;;;;;;;;;;13.40;99.90;;;;;;5155762;27;19907;-74
2022/08/04 01:05:04;;;;;;;;;;;13.40;99.90;;;;;;5137880;27;19903;-74
2022/08/04 01:07:43;;;;;;;;;;;13.40;99.90;;;;;;5155779;27;20477;-74
2022/08/04 01:10:15;;;;;;;;;;;13.40;99.90;;;;;;5156465;27;19907;-74
2022/08/04 01:12:59;;;;;;;;;;;13.30;99.90;;;;;;5156455;27;19903;-74
2022/08/04 01:15:42;;;;;;;;;;;13.30;99.90;;;;;;5155943;27;19928;-74
2022/08/04 01:18:12;;;;;;;;;;;13.20;99.90;;;;;;5156136;27;19903;-74
2022/08/04 01:20:44;;;;;;;;;;;13.20;99.90;;;;;;5156264;27;20297;-74
2022/08/04 01:23:16;;;;;;;;;;;13.20;99.90;;;;;;5156124;27;19903;-75
2022/08/04 01:25:47;;;;;;;;;;;13.10;99.90;;;;;;5156036;27;19985;-75
2022/08/04 01:28:25;;;;;;;;;;;13.10;99.90;;;;;;5155534;27;20297;-75
2022/08/04 01:30:55;;;;;;;;;;;13.10;99.90;;;;;;5155882;27;20308;-74
2022/08/04 01:33:21;;;;;;;;;;;13.10;99.90;;;;;;5136909;27;19903;-75
2022/08/04 01:35:49;;;;;;;;;;;13.20;99.90;;;;;;5156074;27;20236;-75
2022/08/04 01:38:15;;;;;;;;;;;13.10;99.90;;;;;;5155583;27;19904;-74
2022/08/04 01:40:41;;;;;;;;;;;13.10;99.90;;;;;;5155912;27;19915;-75
2022/08/04 01:43:08;;;;;;;;;;;13.10;99.90;;;;;;5155825;27;19949;-75
2022/08/04 01:45:35;;;;;;;;;;;13.10;99.90;;;;;;5155048;27;19912;-75
2022/08/04 01:48:01;;;;;;;;;;;13.00;99.90;;;;;;5155323;27;20367;-75
2022/08/04 01:50:32;;;;;;;;;;;13.00;99.90;;;;;;5155004;27;19910;-74
2022/08/04 01:52:57;;;;;;;;;;;13.00;99.90;;;;;;5155882;27;20297;-74
2022/08/04 01:55:25;;;;;;;;;;;12.90;99.90;;;;;;5154432;27;19955;-75
2022/08/04 01:57:51;;;;;;;;;;;12.90;99.90;;;;;;5155557;27;19904;-74
2022/08/04 02:00:21;;;;;;;;;;;12.90;99.90;;;;;;5155271;27;19910;-74
2022/08/04 02:02:48;;;;;;;;;;;12.80;99.90;;;;;;5155220;27;19945;-75
2022/08/04 02:05:15;;;;;;;;;;;12.80;99.90;;;;;;5155378;27;19933;-75
2022/08/04 02:07:56;;;;;;;;;;;12.70;99.90;;;;;;5155493;27;19907;-75
2022/08/04 02:10:24;;;;;;;;;;;12.60;99.90;;;;;;5154844;27;19946;-75
2022/08/04 02:13:06;;;;;;;;;;;12.60;99.90;;;;;;5155368;27;19914;-75
2022/08/04 02:15:50;;;;;;;;;;;12.60;99.90;;;;;;5136230;27;19903;-74
2022/08/04 02:18:19;;;;;;;;;;;12.60;99.90;;;;;;5154737;27;19993;-75
2022/08/04 02:20:47;;;;;;;;;;;12.50;99.90;;;;;;5155202;27;19903;-75
2022/08/04 02:23:14;;;;;;;;;;;12.50;99.90;;;;;;5154834;27;20378;-74
2022/08/04 02:25:44;;;;;;;;;;;12.50;99.90;;;;;;5154399;27;20402;-74
2022/08/04 02:28:29;;;;;;;;;;;12.60;99.90;;;;;;5154989;27;19950;-74
2022/08/04 02:31:03;;;;;;;;;;;12.50;99.90;;;;;;5154798;27;19986;-75
2022/08/04 02:33:33;;;;;;;;;;;12.60;99.90;;;;;;5154220;27;19907;-75
2022/08/04 02:36:01;;;;;;;;;;;12.50;99.90;;;;;;5155020;27;19997;-74
2022/08/04 02:38:33;;;;;;;;;;;12.50;99.90;;;;;;5154370;27;19963;-74
2022/08/04 02:41:00;;;;;;;;;;;12.50;99.90;;;;;;5154886;27;19922;-75
2022/08/04 02:43:27;;;;;;;;;;;12.60;99.90;;;;;;5154270;27;19946;-75
2022/08/04 02:45:54;;;;;;;;;;;12.60;99.90;;;;;;5154557;27;19907;-75
2022/08/04 02:48:22;;;;;;;;;;;12.40;99.90;;;;;;5154077;27;19913;-74
2022/08/04 02:50:49;;;;;;;;;;;12.40;99.90;;;;;;5154540;27;19945;-75
2022/08/04 02:53:17;;;;;;;;;;;12.40;99.90;;;;;;5154508;27;19903;-75
2022/08/04 02:55:43;;;;;;;;;;;12.40;99.90;;;;;;5154397;27;19911;-75
2022/08/04 02:58:09;;;;;;;;;;;12.30;99.90;;;;;;5154721;27;19903;-75
2022/08/04 03:00:36;;;;;;;;;;;12.30;99.90;;;;;;5154101;27;19903;-74
2022/08/04 03:03:19;;;;;;;;;;;12.30;99.90;;;;;;5154690;27;20331;-75
2022/08/04 03:05:44;;;;;;;;;;;12.30;99.90;;;;;;5154379;27;19911;-74
2022/08/04 03:08:13;;;;;;;;;;;12.30;99.90;;;;;;5158932;27;19911;-75
2022/08/04 03:10:50;;;;;;;;;;;12.30;99.90;;;;;;5158341;27;19950;-75
2022/08/04 03:13:28;;;;;;;;;;;12.20;99.90;;;;;;5158859;27;19910;-74
2022/08/04 03:15:57;;;;;;;;;;;12.20;99.90;;;;;;5158796;27;20247;-75
2022/08/04 03:18:22;;;;;;;;;;;12.20;99.90;;;;;;5157826;27;19912;-74
2022/08/04 03:20:54;;;;;;;;;;;12.20;99.90;;;;;;5158725;27;20224;-74
2022/08/04 03:23:41;;;;;;;;;;;12.20;99.90;;;;;;5158232;27;19907;-74
2022/08/04 03:26:15;;;;;;;;;;;12.20;99.90;;;;;;5158586;27;19907;-74
2022/08/04 03:28:59;;;;;;;;;;;12.20;99.90;;;;;;5139423;27;19964;-74
2022/08/04 03:31:33;;;;;;;;;;;12.20;99.90;;;;;;5157890;27;19903;-74
2022/08/04 03:34:10;;;;;;;;;;;12.10;99.90;;;;;;5158044;27;19907;-74
2022/08/04 03:36:53;;;;;;;;;;;12.10;99.90;;;;;;5157588;27;19910;-75
2022/08/04 03:39:29;;;;;;;;;;;12.00;99.90;;;;;;5158068;27;19930;-75
2022/08/04 03:41:57;;;;;;;;;;;12.00;99.90;;;;;;5157919;27;20390;-75
2022/08/04 03:44:41;;;;;;;;;;;12.10;99.90;;;;;;5158016;27;19910;-74
2022/08/04 03:47:33;;;;;;;;;;;12.10;99.90;;;;;;5139532;27;20263;-74
2022/08/04 03:50:17;;;;;;;;;;;12.10;99.90;;;;;;5157903;27;20030;-75
2022/08/04 03:56:04;;;;;;;;;;;11.90;99.90;;;;;;5093418;28;19926;-75
2022/08/04 03:58:29;;;;;;;;;;;11.90;99.90;;;;;;5120628;27;19907;-74
2022/08/04 04:01:13;;;;;;;;;;;11.90;99.90;;;;;;5157506;27;19910;-75
2022/08/04 04:03:42;;;;;;;;;;;12.00;99.90;;;;;;5157277;27;19915;-74
2022/08/04 04:06:10;;;;;;;;;;;11.90;99.90;;;;;;5157551;27;19907;-74
2022/08/04 04:09:02;;;;;;;;;;;11.80;99.90;;;;;;5156949;27;20350;-74
2022/08/04 04:11:38;;;;;;;;;;;11.80;99.90;;;;;;5117024;27;19956;-74
2022/08/04 04:14:06;;;;;;;;;;;11.80;99.90;;;;;;5157826;27;19944;-74
2022/08/04 04:16:50;;;;;;;;;;;11.80;99.90;;;;;;5157133;27;19903;-74
2022/08/04 04:19:27;;;;;;;;;;;11.70;99.90;;;;;;5156398;27;19903;-74
2022/08/04 04:21:58;;;;;;;;;;;11.70;99.90;;;;;;5157363;27;20316;-74
2022/08/04 04:24:27;;;;;;;;;;;11.70;99.90;;;;;;5156899;27;19910;-74
2022/08/04 04:26:52;;;;;;;;;;;11.70;99.90;;;;;;5157428;27;19930;-76
2022/08/04 04:29:33;;;;;;;;;;;11.70;99.90;;;;;;5157360;27;19911;-74
2022/08/04 04:32:11;;;;;;;;;;;11.70;99.90;;;;;;5157204;27;19976;-74
2022/08/04 04:34:43;;;;;;;;;;;11.70;99.90;;;;;;5156682;27;20002;-74
2022/08/04 04:37:16;;;;;;;;;;;11.70;99.90;;;;;;5157037;27;19915;-74
2022/08/04 04:39:49;;;;;;;;;;;11.60;99.90;;;;;;5156492;27;19911;-73
2022/08/04 04:42:33;;;;;;;;;;;11.60;99.90;;;;;;5157227;27;19903;-74
2022/08/04 04:45:21;;;;;;;;;;;11.70;99.90;;;;;;5157249;27;20319;-75
2022/08/04 04:48:02;;;;;;;;;;;11.70;99.90;;;;;;5156493;27;19967;-74
2022/08/04 04:50:40;;;;;;;;;;;11.70;99.90;;;;;;5156279;27;19910;-74
2022/08/04 04:53:11;;;;;;;;;;;11.80;99.90;;;;;;5156732;27;19979;-75
2022/08/04 04:55:44;;;;;;;;;;;11.60;99.90;;;;;;5156320;27;19911;-74
2022/08/04 04:58:11;;;;;;;;;;;11.70;99.90;;;;;;5138221;27;19911;-74
2022/08/04 05:00:46;;;;;;;;;;;11.70;99.90;;;;;;5156302;27;19907;-74
2022/08/04 05:03:14;;;;;;;;;;;11.50;99.90;;;;;;5156740;27;19903;-75
2022/08/04 05:05:46;;;;;;;;;;;11.60;99.90;;;;;;5155606;27;20335;-75
2022/08/04 05:08:11;;;;;;;;;;;11.60;99.90;;;;;;5156438;27;19993;-75
2022/08/04 05:10:37;;;;;;;;;;;11.60;99.90;;;;;;5155790;27;19942;-74
2022/08/04 05:13:08;;;;;;;;;;;11.60;99.90;;;;;;5156570;27;19903;-74
2022/08/04 05:15:36;;;;;;;;;;;11.70;99.90;;;;;;5155824;27;19909;-74
2022/08/04 05:18:03;;;;;;;;;;;11.70;99.90;;;;;;5156013;27;19928;-74
2022/08/04 05:20:33;;;;;;;;;;;11.70;99.90;;;;;;5155809;27;19903;-74
2022/08/04 05:23:06;;;;;;;;;;;11.80;99.90;;;;;;5156430;27;19907;-75
2022/08/04 05:25:31;;;;;;;;;;;11.80;99.90;;;;;;5155526;27;19903;-75
2022/08/04 05:28:06;;;;;;;;;;;11.90;99.90;;;;;;5155938;27;19907;-75
2022/08/04 05:30:34;;;;;;;;;;;11.90;99.90;;;;;;5155790;27;19994;-74
2022/08/04 05:33:02;;;;;;;;;;;12.00;99.90;;;;;;5156104;27;20005;-76
2022/08/04 05:35:48;;;;;;;;;;;12.00;99.90;;;;;;5155431;27;20281;-75
2022/08/04 05:38:15;;;;;;;;;;;12.10;99.90;;;;;;5155723;27;19907;-75
2022/08/04 05:40:42;;;;;;;;;;;12.20;99.90;;;;;;5136669;27;19915;-75
2022/08/04 05:43:08;;;;;;;;;;;12.30;99.90;;;;;;5155959;27;19947;-75
2022/08/04 05:45:34;;;;;;;;;;;12.40;99.90;;;;;;5155248;27;19910;-75
2022/08/04 05:48:04;;;;;;;;;;;12.40;99.90;;;;;;5155728;27;19907;-75
2022/08/04 05:50:30;;;;;;;;;;;12.50;99.90;;;;;;5155417;27;19954;-75
2022/08/04 05:52:56;;;;;;;;;;;12.60;99.90;;;;;;5155452;27;19903;-74
2022/08/04 05:55:22;;;;;;;;;;;12.70;99.90;;;;;;5155689;27;19903;-75
2022/08/04 05:57:48;;;;;;;;;;;12.80;99.90;;;;;;5155071;27;19952;-74
2022/08/04 06:00:15;;;;;;;;;;;12.90;99.90;;;;;;5155307;27;19998;-75
2022/08/04 06:02:43;;;;;;;;;;;13.10;99.90;;;;;;5155047;27;19972;-74
2022/08/04 06:05:09;;;;;;;;;;;13.20;99.90;;;;;;5155289;27;19903;-75
2022/08/04 06:07:35;;;;;;;;;;;13.30;99.90;;;;;;5154619;27;20292;-75
2022/08/04 06:10:01;;;;;;;;;;;13.30;99.90;;;;;;5155268;27;19911;-75
2022/08/04 06:12:31;;;;;;;;;;;13.50;99.90;;;;;;5155302;27;20331;-75
2022/08/04 06:14:57;;;;;;;;;;;13.50;99.90;;;;;;5154779;27;20330;-75
2022/08/04 06:17:30;;;;;;;;;;;13.60;99.90;;;;;;5136448;27;19942;-75
2022/08/04 06:19:57;;;;;;;;;;;13.70;99.90;;;;;;5154811;27;19903;-74
2022/08/04 06:22:29;;;;;;;;;;;13.90;99.90;;;;;;5154772;27;19955;-75
2022/08/04 06:24:57;;;;;;;;;;;14.00;99.90;;;;;;5154949;27;19942;-75
2022/08/04 06:27:23;;;;;;;;;;;14.10;99.90;;;;;;5154717;27;19962;-75
2022/08/04 06:29:49;;;;;;;;;;;14.20;99.90;;;;;;5154476;27;20241;-74
2022/08/04 06:32:35;;;;;;;;;;;14.30;99.90;;;;;;5155030;27;20243;-75
2022/08/04 06:35:02;;;;;;;;;;;14.40;99.90;;;;;;5155267;27;19918;-74
2022/08/04 06:37:28;;;;;;;;;;;14.40;99.90;;;;;;5154770;27;19903;-75
2022/08/04 06:39:54;;;;;;;;;;;14.40;99.90;;;;;;5153863;27;19903;-74
2022/08/04 06:42:21;;;;;;;;;;;14.50;99.90;;;;;;5154015;27;19948;-75
2022/08/04 06:44:48;;;;;;;;;;;14.50;99.90;;;;;;5154228;27;19903;-75
2022/08/04 06:47:18;;;;;;;;;;;14.60;99.90;;;;;;5154931;27;19930;-75
2022/08/04 06:49:45;;;;;;;;;;;14.80;99.90;;;;;;5154120;27;20024;-75
2022/08/04 06:52:16;;;;;;;;;;;15.00;99.90;;;;;;5154224;27;20385;-75
2022/08/04 06:54:49;;;;;;;;;;;15.10;99.90;;;;;;5153902;27;19950;-75
2022/08/04 06:57:22;;;;;;;;;;;15.20;99.90;;;;;;5154793;27;19929;-75
2022/08/04 06:59:49;;;;;;;;;;;15.30;99.90;;;;;;5153804;27;19903;-75
2022/08/04 07:02:17;;;;;;;;;;;15.30;99.90;;;;;;5135830;27;19903;-75
2022/08/04 07:04:43;;;;;;;;;;;15.40;99.90;;;;;;5153769;27;20328;-75
2022/08/04 07:07:10;;;;;;;;;;;15.40;99.90;;;;;;5154312;27;19918;-74
2022/08/04 07:09:36;;;;;;;;;;;15.50;99.90;;;;;;5153679;27;19908;-75
2022/08/04 07:12:02;;;;;;;;;;;15.50;99.90;;;;;;5154898;27;19926;-75
2022/08/04 07:14:28;;;;;;;;;;;15.70;99.90;;;;;;5153913;27;19909;-75
2022/08/04 07:16:55;;;;;;;;;;;15.80;99.90;;;;;;5153627;27;19926;-75
2022/08/04 07:19:20;;;;;;;;;;;15.90;99.90;;;;;;5154314;27;19903;-75
2022/08/04 07:21:46;;;;;;;;;;;16.00;99.90;;;;;;5153663;27;19903;-75
2022/08/04 07:24:12;;;;;;;;;;;16.00;99.90;;;;;;5154216;27;19964;-75
2022/08/04 07:26:37;;;;;;;;;;;16.20;99.90;;;;;;5153959;27;20343;-75
2022/08/04 07:29:03;;;;;;;;;;;16.10;99.90;;;;;;5154561;27;19961;-75
2022/08/04 07:31:29;;;;;;;;;;;16.20;99.90;;;;;;5154103;27;19921;-75
2022/08/04 07:33:54;;;;;;;;;;;16.20;99.90;;;;;;5153559;27;19911;-76
2022/08/04 07:36:20;;;;;;;;;;;16.20;99.90;;;;;;5135845;27;19939;-74
2022/08/04 07:38:46;;;;;;;;;;;16.10;99.90;;;;;;5153480;27;19903;-73
2022/08/04 07:41:11;;;;;;;;;;;16.20;99.90;;;;;;5154272;27;19922;-75
2022/08/04 07:43:37;;;;;;;;;;;16.30;99.90;;;;;;5135154;27;19903;-74
2022/08/04 07:46:03;;;;;;;;;;;16.30;99.90;;;;;;5154136;27;19958;-74
2022/08/04 07:48:29;;;;;;;;;;;16.50;99.90;;;;;;5135700;27;19911;-75
2022/08/04 07:50:54;;;;;;;;;;;16.60;99.90;;;;;;5153560;27;19990;-74
2022/08/04 07:53:20;;;;;;;;;;;16.70;99.90;;;;;;5157194;27;19952;-75
2022/08/04 07:55:52;;;;;;;;;;;16.70;99.90;;;;;;5157482;27;20295;-75
2022/08/04 07:58:18;;;;;;;;;;;16.80;99.90;;;;;;5158209;27;19903;-74
2022/08/04 08:00:44;;;;;;;;;;;16.90;99.90;;;;;;5157429;27;20357;-74
2022/08/04 08:03:11;;;;;;;;;;;16.90;99.90;;;;;;5158183;27;19903;-74
2022/08/04 08:05:37;;;;;;;;;;;16.80;99.90;;;;;;5157191;27;20260;-75
2022/08/04 08:08:03;;;;;;;;;;;16.80;99.90;;;;;;5157396;27;19993;-74
2022/08/04 08:10:29;;;;;;;;;;;16.70;99.90;;;;;;5157793;27;19988;-74
2022/08/04 08:12:54;;;;;;;;;;;16.80;99.90;;;;;;5157516;27;20379;-75
2022/08/04 08:15:20;;;;;;;;;;;17.00;99.90;;;;;;5157685;27;19964;-74
2022/08/04 08:17:46;;;;;;;;;;;17.10;99.90;;;;;;5156857;27;19969;-74
2022/08/04 08:20:12;;;;;;;;;;;17.20;99.90;;;;;;5157316;27;20263;-76
2022/08/04 08:22:38;;;;;;;;;;;17.30;99.90;;;;;;5157237;27;19910;-74
2022/08/04 08:25:04;;;;;;;;;;;17.30;99.90;;;;;;5157543;27;19903;-75
2022/08/04 08:27:30;;;;;;;;;;;17.30;99.90;;;;;;5157450;27;19907;-75
2022/08/04 08:29:56;;;;;;;;;;;17.30;99.90;;;;;;5156870;27;19986;-76
2022/08/04 08:32:21;;;;;;;;;;;17.40;99.90;;;;;;5157407;27;19952;-74
2022/08/04 08:34:47;;;;;;;;;;;17.30;99.90;;;;;;5156406;27;19907;-75
2022/08/04 08:37:32;;;;;;;;;;;17.50;99.90;;;;;;5156714;27;20271;-74
2022/08/04 08:40:24;;;;;;;;;;;17.40;99.90;;;;;;5156150;27;19911;-74
2022/08/04 08:43:10;;;;;;;;;;;17.50;99.90;;;;;;5156715;27;20349;-74
2022/08/04 08:45:45;;;;;;;;;;;17.60;99.90;;;;;;5157349;27;19903;-75
2022/08/04 08:48:29;;;;;;;;;;;17.60;99.90;;;;;;5157264;27;19968;-75
2022/08/04 08:50:57;;;;;;;;;;;17.60;99.90;;;;;;5156465;27;19947;-75
2022/08/04 08:53:26;;;;;;;;;;;17.50;99.90;;;;;;5156651;27;19903;-74
2022/08/04 08:56:09;;;;;;;;;;;17.50;99.90;;;;;;5156408;27;19903;-75
2022/08/04 08:58:38;;;;;;;;;;;17.50;99.90;;;;;;5155796;27;20013;-74
2022/08/04 09:01:33;;;;;;;;;;;17.60;99.90;;;;;;5137672;27;19911;-74
2022/08/04 09:04:10;;;;;;;;;;;17.60;99.90;;;;;;5063311;27;20508;-74
2022/08/04 09:06:53;;;;;;;;;;;17.60;99.90;;;;;;5156596;27;19907;-74
2022/08/04 09:09:37;;;;;;;;;;;17.50;99.90;;;;;;5137928;27;19907;-74
2022/08/04 09:12:05;;;;;;;;;;;17.50;99.90;;;;;;5155973;27;19911;-75
2022/08/04 09:14:39;;;;;;;;;;;17.50;99.90;;;;;;5156331;27;19991;-74
2022/08/04 09:17:06;;;;;;;;;;;17.60;99.90;;;;;;5156079;27;19948;-74
2022/08/04 09:19:48;;;;;;;;;;;17.60;99.90;;;;;;5155904;27;20319;-74
2022/08/04 09:22:21;;;;;;;;;;;17.50;99.90;;;;;;5156063;27;19929;-74
2022/08/04 09:24:56;;;;;;;;;;;17.50;99.90;;;;;;5155715;27;20009;-74
2022/08/04 09:27:40;;;;;;;;;;;17.80;99.90;;;;;;5156034;27;20376;-74
2022/08/04 09:30:07;;;;;;;;;;;17.80;99.90;;;;;;5155862;27;19914;-74
2022/08/04 09:32:35;;;;;;;;;;;17.90;99.90;;;;;;5155894;27;20358;-75
2022/08/04 09:35:20;;;;;;;;;;;17.90;99.90;;;;;;5155510;27;19910;-75
2022/08/04 09:38:03;;;;;;;;;;;18.00;99.90;;;;;;5155325;27;20028;-75
2022/08/04 09:40:29;;;;;;;;;;;18.00;99.90;;;;;;5155646;27;19919;-75
2022/08/04 09:43:04;;;;;;;;;;;18.00;99.90;;;;;;5155339;27;19907;-75
2022/08/04 09:45:35;;;;;;;;;;;17.90;99.90;;;;;;5156289;27;19907;-75
2022/08/04 09:48:13;;;;;;;;;;;17.70;99.90;;;;;;5155253;27;19911;-74
2022/08/04 09:50:44;;;;;;;;;;;17.80;99.90;;;;;;5155665;27;19950;-75
2022/08/04 09:53:33;;;;;;;;;;;18.10;99.90;;;;;;5155515;27;19903;-74
2022/08/04 09:56:08;;;;;;;;;;;18.30;99.90;;;;;;5154869;27;19903;-74
2022/08/04 09:58:48;;;;;;;;;;;18.40;99.90;;;;;;5155257;27;20370;-74
2022/08/04 10:01:20;;;;;;;;;;;18.30;99.90;;;;;;5155875;27;19907;-74
2022/08/04 10:03:48;;;;;;;;;;;18.30;99.90;;;;;;5155091;27;19903;-75
2022/08/04 10:06:33;;;;;;;;;;;18.40;99.90;;;;;;5155182;27;19914;-75
2022/08/04 10:09:07;;;;;;;;;;;18.50;99.90;;;;;;5154537;27;19915;-75
2022/08/04 10:11:45;;;;;;;;;;;18.60;99.90;;;;;;5155347;27;19903;-75
2022/08/04 10:14:28;;;;;;;;;;;18.70;99.90;;;;;;5155163;27;19903;-75
2022/08/04 10:17:13;;;;;;;;;;;18.70;99.90;;;;;;5153326;27;20329;-76
2022/08/04 10:19:40;;;;;;;;;;;18.50;99.90;;;;;;5154303;27;19903;-74
2022/08/04 10:22:09;;;;;;;;;;;18.30;99.90;;;;;;5155119;27;19907;-75
2022/08/04 10:24:53;;;;;;;;;;;18.30;99.90;;;;;;5154973;27;20359;-75
2022/08/04 10:27:31;;;;;;;;;;;18.40;99.90;;;;;;5154427;27;19907;-75
2022/08/04 10:30:10;;;;;;;;;;;18.10;99.90;;;;;;5154314;27;20255;-75
2022/08/04 10:32:59;;;;;;;;;;;17.90;99.90;;;;;;5154749;27;19998;-75
2022/08/04 10:35:26;;;;;;;;;;;17.90;99.90;;;;;;5154195;27;20343;-75
2022/08/04 10:37:55;;;;;;;;;;;18.00;99.90;;;;;;5153811;27;19903;-75
2022/08/04 10:40:35;;;;;;;;;;;18.10;99.90;;;;;;5135998;27;19956;-75
2022/08/04 10:43:04;;;;;;;;;;;18.40;99.90;;;;;;5154259;27;19907;-74
2022/08/04 10:45:33;;;;;;;;;;;18.60;99.90;;;;;;5154775;27;19913;-75
2022/08/04 10:48:06;;;;;;;;;;;18.60;99.90;;;;;;5154077;27;19907;-75
2022/08/04 10:50:34;;;;;;;;;;;18.40;99.90;;;;;;5154469;27;19978;-75
2022/08/04 10:53:04;;;;;;;;;;;18.20;99.90;;;;;;5153942;27;19903;-75
2022/08/04 10:55:33;;;;;;;;;;;18.30;99.90;;;;;;5136160;27;19907;-75
2022/08/04 10:58:00;;;;;;;;;;;18.40;99.90;;;;;;5154122;27;19903;-75
2022/08/04 11:00:26;;;;;;;;;;;18.60;99.90;;;;;;5136191;27;20294;-75
2022/08/04 11:03:10;;;;;;;;;;;18.90;99.90;;;;;;5154465;27;19903;-75
2022/08/04 11:05:40;;;;;;;;;;;19.20;99.90;;;;;;5154512;27;19903;-75
2022/08/04 11:08:10;;;;;;;;;;;19.30;99.90;;;;;;5135180;27;19918;-75
2022/08/04 11:10:44;;;;;;;;;;;19.20;99.90;;;;;;5154579;27;20281;-75
2022/08/04 11:13:10;;;;;;;;;;;19.00;99.90;;;;;;5154434;27;19965;-74
2022/08/04 11:15:37;;;;;;;;;;;19.10;99.90;;;;;;5154445;27;19903;-74
2022/08/04 11:18:13;;;;;;;;;;;19.10;99.90;;;;;;5153647;27;19903;-75
2022/08/04 11:20:46;;;;;;;;;;;19.10;99.90;;;;;;5154252;27;20348;-75
2022/08/04 11:23:13;;;;;;;;;;;19.10;99.90;;;;;;5153959;27;19907;-76
2022/08/04 11:25:39;;;;;;;;;;;19.20;99.90;;;;;;5153441;27;20048;-75
2022/08/04 11:28:14;;;;;;;;;;;19.40;99.90;;;;;;5138022;27;20921;-75
2022/08/04 11:31:00;;;;;;;;;;;19.50;99.90;;;;;;5154873;27;19911;-76
2022/08/04 11:33:44;;;;;;;;;;;19.70;99.90;;;;;;5123538;27;20253;-76
2022/08/04 11:36:14;;;;;;;;;;;19.80;99.90;;;;;;5153503;27;19915;-76
2022/08/04 11:38:44;;;;;;;;;;;19.80;99.90;;;;;;5136776;27;20347;-76
2022/08/04 11:41:11;;;;;;;;;;;19.80;99.90;;;;;;5154573;27;19930;-76
2022/08/04 11:43:47;;;;;;;;;;;19.90;99.90;;;;;;5155009;27;20263;-76
2022/08/04 11:46:18;;;;;;;;;;;19.80;99.90;;;;;;5134653;27;20356;-76
2022/08/04 11:48:50;;;;;;;;;;;19.90;99.90;;;;;;5126348;27;19911;-75
2022/08/04 11:51:16;;;;;;;;;;;20.00;99.90;;;;;;5154796;27;19907;-76
2022/08/04 11:53:42;;;;;;;;;;;20.00;99.90;;;;;;5155480;27;19907;-74
2022/08/04 11:56:10;;;;;;;;;;;19.80;99.90;;;;;;5135550;27;19960;-75
2022/08/04 11:58:36;;;;;;;;;;;19.60;99.90;;;;;;5134456;27;20048;-76
2022/08/04 12:01:16;;;;;;;;;;;19.40;99.90;;;;;;5133970;27;19944;-75
2022/08/04 12:03:44;;;;;;;;;;;19.30;99.90;;;;;;5153904;27;19907;-76
2022/08/04 12:06:10;;;;;;;;;;;19.30;99.90;;;;;;5153993;27;19919;-75
2022/08/04 12:08:55;;;;;;;;;;;19.20;99.90;;;;;;5140356;27;19918;-75
2022/08/04 12:11:40;;;;;;;;;;;19.10;99.90;;;;;;5090003;27;19908;-75
2022/08/04 12:14:18;;;;;;;;;;;19.00;99.90;;;;;;5151301;27;19946;-75
2022/08/04 12:16:47;;;;;;;;;;;18.90;99.90;;;;;;5150017;27;19907;-75
2022/08/04 12:19:39;;;;;;;;;;;18.90;99.90;;;;;;5134537;27;19907;-75
2022/08/04 12:22:14;;;;;;;;;;;18.90;99.90;;;;;;5100576;27;19907;-75
2022/08/04 12:24:43;;;;;;;;;;;19.20;99.90;;;;;;5134467;27;19911;-76
2022/08/04 12:27:16;;;;;;;;;;;19.50;99.90;;;;;;5127022;27;19923;-75
2022/08/04 12:29:43;;;;;;;;;;;19.60;99.90;;;;;;5153835;27;20047;-75
2022/08/04 12:32:27;;;;;;;;;;;19.40;99.90;;;;;;5153417;27;19974;-75
2022/08/04 12:35:02;;;;;;;;;;;19.20;99.90;;;;;;5153306;27;19914;-75
2022/08/04 12:37:46;;;;;;;;;;;19.00;99.90;;;;;;5153893;27;19946;-76
2022/08/04 12:40:28;;;;;;;;;;;19.10;99.90;;;;;;5152471;27;19967;-75
2022/08/04 12:43:07;;;;;;;;;;;19.40;99.90;;;;;;5125606;27;20260;-75
2022/08/04 12:45:33;;;;;;;;;;;19.50;99.90;;;;;;5139187;27;19976;-76
2022/08/04 12:48:00;;;;;;;;;;;19.70;99.90;;;;;;5145143;27;19947;-76
2022/08/04 12:50:25;;;;;;;;;;;19.90;99.90;;;;;;5153704;27;19911;-75
2022/08/04 12:52:53;;;;;;;;;;;20.10;99.90;;;;;;5153464;27;20006;-76
2022/08/04 12:55:20;;;;;;;;;;;20.10;99.90;;;;;;5154165;27;19907;-76
2022/08/04 12:57:46;;;;;;;;;;;20.20;99.90;;;;;;5138321;27;20287;-76
2022/08/04 13:00:22;;;;;;;;;;;20.50;99.90;;;;;;5134750;27;19914;-76
2022/08/04 13:02:48;;;;;;;;;;;20.70;99.90;;;;;;5153680;27;19998;-76
2022/08/04 13:05:14;;;;;;;;;;;20.50;99.90;;;;;;5152894;27;19941;-76
2022/08/04 13:07:46;;;;;;;;;;;20.20;99.90;;;;;;5153595;27;19922;-76
2022/08/04 13:10:13;;;;;;;;;;;19.90;99.90;;;;;;5152550;27;20476;-76
2022/08/04 13:12:39;;;;;;;;;;;19.70;99.90;;;;;;5153348;27;19959;-76
2022/08/04 13:15:11;;;;;;;;;;;19.70;99.90;;;;;;5152209;27;19919;-74
2022/08/04 13:17:47;;;;;;;;;;;19.80;99.90;;;;;;5152716;27;20180;-75
2022/08/04 13:20:13;;;;;;;;;;;19.90;99.90;;;;;;5151997;27;19907;-75
2022/08/04 13:22:39;;;;;;;;;;;19.90;99.90;;;;;;5153357;27;20480;-75
2022/08/04 13:25:05;;;;;;;;;;;19.80;99.90;;;;;;5132670;27;19913;-75
2022/08/04 13:27:31;;;;;;;;;;;19.80;99.90;;;;;;5132992;27;20018;-76
2022/08/04 13:29:56;;;;;;;;;;;19.90;99.90;;;;;;5132251;27;20381;-75
2022/08/04 13:32:23;;;;;;;;;;;19.90;99.90;;;;;;5132786;27;19914;-74
2022/08/04 13:34:51;;;;;;;;;;;19.90;99.90;;;;;;5132877;27;19932;-74
2022/08/04 13:37:17;;;;;;;;;;;19.70;99.90;;;;;;5151543;27;20285;-74
2022/08/04 13:39:48;;;;;;;;;;;19.70;99.90;;;;;;5152464;27;20039;-73
2022/08/04 13:42:14;;;;;;;;;;;19.70;99.90;;;;;;5151631;27;19911;-75
2022/08/04 13:44:41;;;;;;;;;;;19.50;99.90;;;;;;5152504;27;19923;-75
2022/08/04 13:47:08;;;;;;;;;;;19.60;99.90;;;;;;5131961;27;19918;-74
2022/08/04 13:49:34;;;;;;;;;;;19.60;99.90;;;;;;5132305;27;19923;-75
2022/08/04 13:52:01;;;;;;;;;;;19.60;99.90;;;;;;5140581;27;19926;-74
2022/08/04 13:54:35;;;;;;;;;;;19.70;99.90;;;;;;5132406;27;20371;-75
2022/08/04 13:57:01;;;;;;;;;;;19.80;99.90;;;;;;5149178;27;19911;-74
2022/08/04 13:59:32;;;;;;;;;;;19.80;99.90;;;;;;5151843;27;19930;-75
2022/08/04 14:02:00;;;;;;;;;;;19.90;99.90;;;;;;5151546;27;19945;-77
2022/08/04 14:04:26;;;;;;;;;;;20.00;99.90;;;;;;5135864;27;20398;-76
2022/08/04 14:07:04;;;;;;;;;;;19.90;99.90;;;;;;5152476;27;19911;-77
2022/08/04 14:09:31;;;;;;;;;;;19.90;99.90;;;;;;5132380;27;19922;-76
2022/08/04 14:12:03;;;;;;;;;;;19.80;99.90;;;;;;5148527;27;19907;-77
2022/08/04 14:14:30;;;;;;;;;;;19.80;99.90;;;;;;5151890;27;19918;-75
2022/08/04 14:17:09;;;;;;;;;;;19.80;99.90;;;;;;5133333;27;20348;-77
2022/08/04 14:19:53;;;;;;;;;;;19.80;99.90;;;;;;5147250;27;19907;-75
2022/08/04 14:22:24;;;;;;;;;;;20.00;99.90;;;;;;5134513;27;20376;-75
2022/08/04 14:25:10;;;;;;;;;;;20.30;99.90;;;;;;5144902;27;19950;-75
2022/08/04 14:27:42;;;;;;;;;;;20.60;99.90;;;;;;5132032;27;19937;-76
2022/08/04 14:30:29;;;;;;;;;;;20.60;99.90;;;;;;5119435;27;19960;-76
2022/08/04 14:32:58;;;;;;;;;;;20.60;99.90;;;;;;5142340;27;19914;-77
2022/08/04 14:35:24;;;;;;;;;;;20.40;99.90;;;;;;5131981;27;19908;-77
2022/08/04 14:37:54;;;;;;;;;;;20.60;99.90;;;;;;5152015;27;20348;-75
2022/08/04 14:40:23;;;;;;;;;;;20.80;99.90;;;;;;5134470;27;19950;-76
2022/08/04 14:42:49;;;;;;;;;;;21.00;99.90;;;;;;5151792;27;20696;-76
2022/08/04 14:45:15;;;;;;;;;;;21.20;99.90;;;;;;5151311;27;19958;-75